BON309 FAOR-FMEE
Flight info
| Callsign | BON309 |
|---|---|
| Flight time | N/A |
| Altitude | 37000 |
| Route | EXOBI1A EXOBI UT122 ORNAD/N0415F270 UG653 SUNIR/N0454F370 UG653 GERAG GERAG2R |
| Aircraft | B38M/M-SDE1FGHILORVWXY/HB1 |
Departure
| Time | 2026-05-04 09:02 |
|---|---|
| Airport | O.R. Tambo International Airport (FAOR) |
Arrival
| Time | N/A |
|---|---|
| Airport | Roland Garros Airport (FMEE) |
| Time | Latitude | Longitude | Altitude | Speed | Heading |
|---|---|---|---|---|---|
| 2026-05-04 08:42 | -26.13476 | 28.23280 | 5552 ft | 0 kts | 275° |
| 2026-05-04 08:52 | -26.13479 | 28.23302 | 5551 ft | 4 kts | 282° |
| 2026-05-04 08:53 | -26.13487 | 28.23330 | 5552 ft | 4 kts | 296° |
| 2026-05-04 08:54 | -26.13524 | 28.23361 | 5550 ft | 0 kts | 6° |
| 2026-05-04 08:57 | -26.13435 | 28.23528 | 5550 ft | 11 kts | 96° |
| 2026-05-04 09:01 | -26.14612 | 28.23373 | 5569 ft | 14 kts | 107° |
| 2026-05-04 09:01 | -26.14592 | 28.23453 | 5569 ft | 12 kts | 18° |
| 2026-05-04 09:01 | -26.14504 | 28.23478 | 5568 ft | 18 kts | 15° |
| 2026-05-04 09:01 | -26.14180 | 28.23578 | 5569 ft | 79 kts | 15° |
| 2026-05-04 09:02 | -26.13454 | 28.23801 | 5555 ft | 136 kts | 15° |
| 2026-05-04 09:02 | -26.12407 | 28.24123 | 5557 ft | 176 kts | 17° |
| 2026-05-04 09:02 | -26.11216 | 28.24514 | 6014 ft | 182 kts | 11° |
| 2026-05-04 09:02 | -26.09954 | 28.24905 | 6521 ft | 189 kts | 12° |
| 2026-05-04 09:03 | -26.08699 | 28.25292 | 7221 ft | 188 kts | 12° |
| 2026-05-04 09:03 | -26.07383 | 28.25699 | 7709 ft | 205 kts | 13° |
| 2026-05-04 09:03 | -26.05983 | 28.26309 | 8082 ft | 231 kts | 26° |
| 2026-05-04 09:03 | -26.04715 | 28.27614 | 8266 ft | 272 kts | 57° |
| 2026-05-04 09:04 | -26.04150 | 28.29728 | 8532 ft | 301 kts | 84° |
| 2026-05-04 09:04 | -26.03924 | 28.32030 | 9532 ft | 301 kts | 81° |
| 2026-05-04 09:04 | -26.03609 | 28.34371 | 10302 ft | 310 kts | 80° |
| 2026-05-04 09:04 | -26.03271 | 28.36768 | 10963 ft | 321 kts | 79° |
| 2026-05-04 09:05 | -26.02902 | 28.39293 | 11367 ft | 340 kts | 79° |
| 2026-05-04 09:05 | -26.02509 | 28.41939 | 11880 ft | 351 kts | 79° |
| 2026-05-04 09:05 | -26.02115 | 28.44614 | 12749 ft | 351 kts | 78° |
| 2026-05-04 09:05 | -26.01765 | 28.47319 | 13491 ft | 356 kts | 84° |
| 2026-05-04 09:06 | -26.01905 | 28.50070 | 14267 ft | 360 kts | 99° |
| 2026-05-04 09:07 | -26.06862 | 28.69647 | 18345 ft | 388 kts | 103° |
| 2026-05-04 09:08 | -26.07585 | 28.72556 | 18839 ft | 393 kts | 103° |
| 2026-05-04 09:08 | -26.08316 | 28.75499 | 19287 ft | 397 kts | 103° |
| 2026-05-04 09:08 | -26.09053 | 28.78472 | 19743 ft | 400 kts | 103° |
| 2026-05-04 09:08 | -26.09519 | 28.81477 | 20161 ft | 400 kts | 87° |
| 2026-05-04 09:09 | -26.09243 | 28.84586 | 20613 ft | 401 kts | 78° |
| 2026-05-04 09:09 | -26.08834 | 28.87673 | 20994 ft | 406 kts | 78° |
| 2026-05-04 09:09 | -26.08403 | 28.90747 | 21460 ft | 409 kts | 78° |
| 2026-05-04 09:09 | -26.07945 | 28.93886 | 21873 ft | 414 kts | 78° |
| 2026-05-04 09:10 | -26.07473 | 28.97056 | 22313 ft | 417 kts | 78° |
| 2026-05-04 09:10 | -26.06991 | 29.00252 | 22736 ft | 421 kts | 78° |
| 2026-05-04 09:10 | -26.06501 | 29.03481 | 23154 ft | 425 kts | 78° |
| 2026-05-04 09:10 | -26.06007 | 29.06738 | 23572 ft | 429 kts | 78° |
| 2026-05-04 09:11 | -26.05507 | 29.10025 | 23963 ft | 433 kts | 78° |
| 2026-05-04 09:11 | -26.05002 | 29.13339 | 24320 ft | 436 kts | 78° |
| 2026-05-04 09:11 | -26.04724 | 29.16710 | 24702 ft | 440 kts | 86° |
| 2026-05-04 09:11 | -26.04592 | 29.20113 | 25082 ft | 442 kts | 85° |
| 2026-05-04 09:12 | -26.04462 | 29.23534 | 25460 ft | 444 kts | 86° |
| 2026-05-04 09:12 | -26.04332 | 29.26975 | 25819 ft | 446 kts | 86° |
| 2026-05-04 09:14 | -26.03389 | 29.51487 | 28222 ft | 461 kts | 86° |
| 2026-05-04 09:14 | -26.03249 | 29.55059 | 28538 ft | 463 kts | 86° |
| 2026-05-04 09:14 | -26.03107 | 29.58642 | 28888 ft | 465 kts | 86° |
| 2026-05-04 09:14 | -26.02963 | 29.62238 | 29174 ft | 467 kts | 86° |
| 2026-05-04 09:15 | -26.02818 | 29.65856 | 29476 ft | 469 kts | 86° |
| 2026-05-04 09:15 | -26.02671 | 29.69487 | 29783 ft | 471 kts | 86° |
| 2026-05-04 09:15 | -26.02523 | 29.73139 | 30046 ft | 474 kts | 86° |
| 2026-05-04 09:15 | -26.02373 | 29.76806 | 30330 ft | 476 kts | 86° |
| 2026-05-04 09:17 | -26.01114 | 30.06719 | 32073 ft | 492 kts | 86° |
| 2026-05-04 09:18 | -26.00950 | 30.10527 | 32294 ft | 494 kts | 86° |
| 2026-05-04 09:18 | -26.00786 | 30.14300 | 32508 ft | 496 kts | 86° |
| 2026-05-04 09:18 | -26.00615 | 30.18192 | 32708 ft | 498 kts | 87° |
| 2026-05-04 09:18 | -26.00446 | 30.22047 | 32919 ft | 500 kts | 87° |
| 2026-05-04 09:19 | -26.00276 | 30.25865 | 33120 ft | 502 kts | 87° |
| 2026-05-04 09:19 | -26.00103 | 30.29748 | 33308 ft | 504 kts | 86° |
| 2026-05-04 09:19 | -25.99929 | 30.33639 | 33580 ft | 504 kts | 87° |
| 2026-05-04 09:19 | -25.99754 | 30.37533 | 33850 ft | 504 kts | 87° |
| 2026-05-04 09:20 | -25.99577 | 30.41425 | 34108 ft | 504 kts | 87° |
| 2026-05-04 09:20 | -25.99399 | 30.45319 | 34364 ft | 504 kts | 87° |
| 2026-05-04 09:20 | -25.99221 | 30.49213 | 34582 ft | 504 kts | 87° |
| 2026-05-04 09:20 | -25.99042 | 30.53104 | 34815 ft | 504 kts | 87° |
| 2026-05-04 09:21 | -25.98862 | 30.56988 | 35045 ft | 504 kts | 87° |
| 2026-05-04 09:21 | -25.98679 | 30.60878 | 35267 ft | 504 kts | 87° |
| 2026-05-04 09:21 | -25.98496 | 30.64759 | 35473 ft | 503 kts | 87° |
| 2026-05-04 09:21 | -25.98312 | 30.68646 | 35704 ft | 503 kts | 86° |
| 2026-05-04 09:22 | -25.98127 | 30.72527 | 35918 ft | 503 kts | 86° |
| 2026-05-04 09:22 | -25.97942 | 30.76408 | 36119 ft | 503 kts | 86° |
| 2026-05-04 09:22 | -25.97755 | 30.80284 | 36326 ft | 502 kts | 86° |
| 2026-05-04 09:22 | -25.97568 | 30.84164 | 36506 ft | 502 kts | 86° |
| 2026-05-04 09:23 | -25.97379 | 30.88037 | 36708 ft | 502 kts | 86° |
| 2026-05-04 09:23 | -25.97189 | 30.91913 | 36893 ft | 502 kts | 86° |
| 2026-05-04 09:23 | -25.96999 | 30.95785 | 37078 ft | 502 kts | 86° |
| 2026-05-04 09:23 | -25.96808 | 30.99655 | 37197 ft | 502 kts | 86° |
| 2026-05-04 09:25 | -25.95243 | 31.30473 | 37171 ft | 498 kts | 86° |
| 2026-05-04 09:26 | -25.94844 | 31.38148 | 37166 ft | 498 kts | 86° |
| 2026-05-04 09:26 | -25.94441 | 31.45828 | 37153 ft | 498 kts | 86° |
| 2026-05-04 09:27 | -25.94034 | 31.53502 | 37147 ft | 498 kts | 86° |
| 2026-05-04 09:27 | -25.93625 | 31.61124 | 37140 ft | 497 kts | 86° |
| 2026-05-04 09:28 | -25.93208 | 31.68841 | 37142 ft | 497 kts | 86° |
| 2026-05-04 09:28 | -25.92792 | 31.76458 | 37131 ft | 497 kts | 86° |
| 2026-05-04 09:29 | -25.92368 | 31.84128 | 37129 ft | 497 kts | 86° |
| 2026-05-04 09:29 | -25.91938 | 31.91839 | 37124 ft | 497 kts | 86° |
| 2026-05-04 09:30 | -25.91439 | 31.99442 | 37097 ft | 497 kts | 85° |
| 2026-05-04 09:30 | -25.90877 | 32.07088 | 37104 ft | 497 kts | 85° |
| 2026-05-04 09:31 | -25.90315 | 32.14742 | 37099 ft | 497 kts | 85° |
| 2026-05-04 09:31 | -25.89750 | 32.22394 | 37080 ft | 497 kts | 85° |
| 2026-05-04 09:32 | -25.89181 | 32.30048 | 37053 ft | 497 kts | 85° |
| 2026-05-04 09:34 | -25.86803 | 32.60625 | 37035 ft | 496 kts | 79° |
| 2026-05-04 09:34 | -25.85451 | 32.68133 | 37049 ft | 496 kts | 77° |
| 2026-05-04 09:35 | -25.84063 | 32.75629 | 37054 ft | 496 kts | 77° |
| 2026-05-04 09:35 | -25.82668 | 32.83120 | 37053 ft | 496 kts | 77° |
| 2026-05-04 09:37 | -25.77051 | 33.13060 | 37070 ft | 495 kts | 77° |
| 2026-05-04 09:38 | -25.75647 | 33.20488 | 37073 ft | 495 kts | 77° |
| 2026-05-04 09:38 | -25.74232 | 33.27953 | 37077 ft | 495 kts | 77° |
| 2026-05-04 09:39 | -25.72812 | 33.35421 | 37075 ft | 495 kts | 77° |
| 2026-05-04 09:39 | -25.71389 | 33.42883 | 37081 ft | 495 kts | 77° |
| 2026-05-04 09:40 | -25.69962 | 33.50345 | 37081 ft | 495 kts | 77° |
| 2026-05-04 09:40 | -25.68531 | 33.57806 | 37081 ft | 495 kts | 77° |
| 2026-05-04 09:42 | -25.62773 | 33.87616 | 37080 ft | 494 kts | 77° |
| 2026-05-04 09:43 | -25.61324 | 33.95063 | 37084 ft | 494 kts | 77° |
| 2026-05-04 09:43 | -25.59873 | 34.02509 | 37085 ft | 494 kts | 77° |
| 2026-05-04 09:44 | -25.58445 | 34.09956 | 37086 ft | 494 kts | 78° |
| 2026-05-04 09:46 | -25.52913 | 34.39776 | 37089 ft | 494 kts | 78° |
| 2026-05-04 09:46 | -25.51520 | 34.47224 | 37091 ft | 494 kts | 78° |
| 2026-05-04 09:47 | -25.50122 | 34.54675 | 37094 ft | 494 kts | 77° |
| 2026-05-04 09:49 | -25.44501 | 34.84413 | 37100 ft | 495 kts | 77° |
| 2026-05-04 09:51 | -25.39757 | 35.09244 | 37099 ft | 494 kts | 77° |
| 2026-05-04 09:51 | -25.38329 | 35.16678 | 37103 ft | 494 kts | 77° |
| 2026-05-04 09:52 | -25.36895 | 35.24115 | 37106 ft | 494 kts | 77° |
| 2026-05-04 09:52 | -25.35469 | 35.31494 | 37105 ft | 494 kts | 77° |
| 2026-05-04 09:53 | -25.34028 | 35.38926 | 37105 ft | 494 kts | 77° |
| 2026-05-04 09:53 | -25.32584 | 35.46354 | 37111 ft | 494 kts | 77° |
| 2026-05-04 09:54 | -25.31136 | 35.53782 | 37105 ft | 495 kts | 77° |
| 2026-05-04 09:54 | -25.29683 | 35.61212 | 37111 ft | 495 kts | 77° |
| 2026-05-04 09:55 | -25.28226 | 35.68643 | 37116 ft | 495 kts | 77° |
| 2026-05-04 09:55 | -25.26767 | 35.76069 | 37112 ft | 495 kts | 77° |
| 2026-05-04 09:56 | -25.25301 | 35.83501 | 37111 ft | 495 kts | 77° |
| 2026-05-04 09:56 | -25.23832 | 35.90933 | 37113 ft | 495 kts | 77° |
| 2026-05-04 09:57 | -25.22359 | 35.98363 | 37117 ft | 495 kts | 77° |
| 2026-05-04 09:57 | -25.20882 | 36.05794 | 37119 ft | 495 kts | 76° |
| 2026-05-04 09:58 | -25.19401 | 36.13224 | 37117 ft | 495 kts | 76° |
| 2026-05-04 09:58 | -25.17928 | 36.20594 | 37116 ft | 495 kts | 76° |
| 2026-05-04 10:00 | -25.11950 | 36.50318 | 37118 ft | 496 kts | 76° |
| 2026-05-04 10:04 | -25.00435 | 37.02149 | 37116 ft | 498 kts | 75° |
| 2026-05-04 10:04 | -24.98766 | 37.09566 | 37125 ft | 499 kts | 75° |
| 2026-05-04 10:05 | -24.97093 | 37.16985 | 37121 ft | 499 kts | 75° |
| 2026-05-04 10:05 | -24.95415 | 37.24403 | 37120 ft | 499 kts | 74° |
| 2026-05-04 10:06 | -24.93733 | 37.31826 | 37129 ft | 500 kts | 74° |
| 2026-05-04 10:06 | -24.92044 | 37.39258 | 37123 ft | 500 kts | 74° |
| 2026-05-04 10:08 | -24.86098 | 37.65277 | 37124 ft | 501 kts | 74° |
| 2026-05-04 10:08 | -24.84390 | 37.72711 | 37122 ft | 501 kts | 74° |
| 2026-05-04 10:09 | -24.82678 | 37.80147 | 37125 ft | 502 kts | 74° |
| 2026-05-04 10:09 | -24.80959 | 37.87590 | 37124 ft | 502 kts | 74° |
| 2026-05-04 10:10 | -24.79236 | 37.95035 | 37124 ft | 502 kts | 74° |
| 2026-05-04 10:10 | -24.77508 | 38.02486 | 37125 ft | 503 kts | 73° |
| 2026-05-04 10:11 | -24.75775 | 38.09938 | 37121 ft | 503 kts | 73° |
| 2026-05-04 10:11 | -24.74039 | 38.17384 | 37121 ft | 503 kts | 73° |
| 2026-05-04 10:12 | -24.72309 | 38.24786 | 37120 ft | 503 kts | 73° |
| 2026-05-04 10:12 | -24.70563 | 38.32243 | 37122 ft | 503 kts | 73° |
| 2026-05-04 10:13 | -24.68814 | 38.39693 | 37121 ft | 503 kts | 73° |
| 2026-05-04 10:13 | -24.67060 | 38.47144 | 37135 ft | 503 kts | 73° |
| 2026-05-04 10:14 | -24.65305 | 38.54585 | 37120 ft | 503 kts | 73° |
| 2026-05-04 10:16 | -24.58238 | 38.84367 | 37122 ft | 504 kts | 73° |
| 2026-05-04 10:16 | -24.56460 | 38.91815 | 37119 ft | 504 kts | 73° |
| 2026-05-04 10:17 | -24.54678 | 38.99264 | 37117 ft | 505 kts | 73° |
| 2026-05-04 10:19 | -24.47508 | 39.29058 | 37117 ft | 505 kts | 73° |
| 2026-05-04 10:19 | -24.45718 | 39.36452 | 37111 ft | 505 kts | 73° |
| 2026-05-04 10:20 | -24.43900 | 39.43946 | 37116 ft | 505 kts | 73° |
| 2026-05-04 10:20 | -24.42103 | 39.51334 | 37114 ft | 505 kts | 73° |
| 2026-05-04 10:21 | -24.40290 | 39.58774 | 37109 ft | 505 kts | 73° |
| 2026-05-04 10:21 | -24.38473 | 39.66211 | 37114 ft | 505 kts | 73° |
| 2026-05-04 10:22 | -24.35743 | 39.77362 | 37110 ft | 505 kts | 73° |
| 2026-05-04 10:23 | -24.33919 | 39.84794 | 37108 ft | 505 kts | 73° |